This is the latest recevied weather packets stored in our database for station/object PY1LEO-13. If no packets are shown the sender has not sent any weather packets the latest 10 day(s).
| Time | Temp. | Humidity | Pressure | Rain* | Wind** | Luminosity | Snow |
|---|---|---|---|---|---|---|---|
| 1778097768 | 28.89° C | 61% | 1018 hPa | - | - | - | - |
| 1778097468 | 28.33° C | 62% | 1018 hPa | - | - | - | - |
| 1778097168 | 28.33° C | 61% | 1017.9 hPa | - | - | - | - |
| 1778096868 | 28.89° C | 60% | 1017.9 hPa | - | - | - | - |
| 1778096568 | 28.89° C | 59% | 1017.9 hPa | - | - | - | - |
| 1778096268 | 29.44° C | 58% | 1017.9 hPa | - | - | - | - |
| 1778095616 | 29.44° C | 58% | 1018 hPa | - | - | - | - |
| 1778095316 | 30° C | 56% | 1018 hPa | - | - | - | - |
| 1778095016 | 29.44° C | 58% | 1018 hPa | - | - | - | - |
| 1778094719 | 29.44° C | 57% | 1018 hPa | - | - | - | - |
| 1778094416 | 30° C | 55% | 1018 hPa | - | - | - | - |
| 1778094116 | 30.56° C | 53% | 1018 hPa | - | - | - | - |
| 1778093816 | 30° C | 55% | 1018 hPa | - | - | - | - |
| 1778093516 | 29.44° C | 56% | 1018 hPa | - | - | - | - |
| 1778093216 | 30.56° C | 53% | 1018 hPa | - | - | - | - |
| 1778092916 | 30° C | 55% | 1018 hPa | - | - | - | - |
| 1778092616 | 30° C | 54% | 1018 hPa | - | - | - | - |
| 1778092316 | 30.56° C | 52% | 1018 hPa | - | - | - | - |
| 1778092016 | 30° C | 53% | 1017.9 hPa | - | - | - | - |
| 1778091716 | 30.56° C | 51% | 1017.9 hPa | - | - | - | - |
| 1778091416 | 29.44° C | 53% | 1017.9 hPa | - | - | - | - |
| 1778091116 | 31.11° C | 50% | 1018 hPa | - | - | - | - |
| 1778090816 | 30° C | 52% | 1017.9 hPa | - | - | - | - |
| 1778090516 | 30° C | 53% | 1018 hPa | - | - | - | - |
| 1778090216 | 30° C | 53% | 1018 hPa | - | - | - | - |
* Rain since midnight (hover to see other rain measurements)
** Current wind speed in m/s (hover to see current wind gust speed)